Time;durP1;ratioP1;P1;durP2;ratioP2;P2;SDS_P1;SDS_P2;PMS_P1;PMS_P2;Temp;Humidity;BMP_temperature;BMP_pressure;BME280_temperature;BME280_humidity;BME280_pressure;Samples;Min_cycle;Max_cycle;Signal;HPM_P1;HPM_P2
2024/02/01 00:01:56;;;;;;;2.10;2.00;;;9.20;99.90;;;;;;4957715;28;20714;-90
2024/02/01 00:04:21;;;;;;;4.80;0.67;;;9.10;99.90;;;;;;4989048;28;20211;-90
2024/02/01 00:06:51;;;;;;;0.40;0.40;;;9.20;99.90;;;;;;4973324;28;20219;-90
2024/02/01 00:09:17;;;;;;;0.53;0.53;;;9.00;99.90;;;;;;4975074;28;20278;-90
2024/02/01 00:11:43;;;;;;;3.30;2.60;;;9.20;99.90;;;;;;4988413;28;20224;-90
2024/02/01 00:14:09;;;;;;;4.03;1.20;;;8.90;99.90;;;;;;4973776;28;20227;-91
2024/02/01 00:16:35;;;;;;;1.60;1.13;;;8.90;99.90;;;;;;4957637;28;20215;-90
2024/02/01 00:19:01;;;;;;;3.33;1.77;;;8.80;99.90;;;;;;4975062;28;20224;-90
2024/02/01 00:21:27;;;;;;;0.60;0.30;;;9.10;99.90;;;;;;4990178;28;20230;-89
2024/02/01 00:23:53;;;;;;;0.63;0.63;;;9.10;99.90;;;;;;4973922;28;20287;-90
2024/02/01 00:26:20;;;;;;;1.40;1.30;;;8.80;99.90;;;;;;4973047;28;20216;-90
2024/02/01 00:28:46;;;;;;;0.83;0.83;;;8.90;99.90;;;;;;4974012;28;20220;-89
2024/02/01 00:31:12;;;;;;;0.63;0.63;;;8.70;99.90;;;;;;4973307;28;20346;-89
2024/02/01 00:33:38;;;;;;;0.80;0.60;;;8.80;99.90;;;;;;4972884;28;20549;-89
2024/02/01 00:36:04;;;;;;;5.20;1.27;;;8.80;99.90;;;;;;4973902;28;20294;-90
2024/02/01 00:38:30;;;;;;;5.33;0.60;;;8.60;99.90;;;;;;4976099;28;20289;-89
2024/02/01 00:40:56;;;;;;;5.27;1.23;;;8.60;99.90;;;;;;4976865;28;20223;-90
2024/02/01 00:43:21;;;;;;;0.30;0.30;;;8.40;99.90;;;;;;4976103;28;20222;-90
2024/02/01 00:45:47;;;;;;;0.40;0.40;;;8.50;99.90;;;;;;4977465;28;20365;-90
2024/02/01 00:48:16;;;;;;;2.63;0.67;;;8.40;99.90;;;;;;4976650;28;20245;-90
2024/02/01 00:50:42;;;;;;;5.70;0.73;;;8.30;99.90;;;;;;4976544;28;20211;-89
2024/02/01 00:53:08;;;;;;;0.93;0.93;;;8.20;99.90;;;;;;4976531;28;20222;-90
2024/02/01 00:55:33;;;;;;;0.20;0.20;;;7.90;99.90;;;;;;4950776;28;20369;-90
2024/02/01 00:57:59;;;;;;;0.20;0.20;;;8.00;99.90;;;;;;4976393;28;20219;-91
2024/02/01 01:00:25;;;;;;;0.87;0.50;;;7.70;99.90;;;;;;4976627;28;20194;-90
2024/02/01 01:02:51;;;;;;;8.87;0.73;;;7.80;99.90;;;;;;4976148;28;20261;-90
2024/02/01 01:05:17;;;;;;;0.50;0.50;;;7.90;99.90;;;;;;4975406;28;20254;-90
2024/02/01 01:07:43;;;;;;;0.50;0.50;;;7.50;99.90;;;;;;4975884;28;20604;-89
2024/02/01 01:10:09;;;;;;;0.87;0.87;;;7.70;99.90;;;;;;4976143;28;20229;-91
2024/02/01 01:12:35;;;;;;;0.63;0.63;;;7.40;99.90;;;;;;4976273;28;20308;-91
2024/02/01 01:15:02;;;;;;;6.60;2.10;;;7.60;99.90;;;;;;4992737;28;20180;-90
2024/02/01 01:17:28;;;;;;;0.53;0.50;;;7.40;99.90;;;;;;4986120;28;20779;-89
2024/02/01 01:19:55;;;;;;;0.60;0.60;;;7.40;99.90;;;;;;4976059;28;20222;-90
2024/02/01 01:22:20;;;;;;;0.50;0.50;;;7.30;99.90;;;;;;4976508;28;20317;-89
2024/02/01 01:24:46;;;;;;;0.27;0.27;;;7.20;99.90;;;;;;4976280;28;20274;-91
2024/02/01 01:27:12;;;;;;;0.40;0.40;;;7.40;99.90;;;;;;4976140;28;20202;-90
2024/02/01 01:29:38;;;;;;;0.50;0.50;;;7.50;99.90;;;;;;4975433;28;20281;-90
2024/02/01 01:32:04;;;;;;;0.20;0.20;;;7.20;99.90;;;;;;4975956;28;20230;-91
2024/02/01 01:34:29;;;;;;;0.93;0.93;;;7.00;99.90;;;;;;4975468;28;20225;-90
2024/02/01 01:36:55;;;;;;;0.83;0.83;;;7.30;99.90;;;;;;4983382;28;20215;-90
2024/02/01 01:39:21;;;;;;;0.50;0.50;;;7.20;99.90;;;;;;4976741;28;20242;-90
2024/02/01 01:41:47;;;;;;;0.50;0.50;;;7.10;99.90;;;;;;4975698;28;20212;-91
2024/02/01 01:44:13;;;;;;;0.30;0.30;;;7.00;99.90;;;;;;4975622;28;20204;-89
2024/02/01 01:46:39;;;;;;;0.57;0.50;;;6.90;99.90;;;;;;4975434;28;20215;-89
2024/02/01 01:49:06;;;;;;;0.93;0.80;;;6.90;99.90;;;;;;4976079;28;20330;-91
2024/02/01 01:51:35;;;;;;;5.10;2.00;;;6.80;99.90;;;;;;4991532;28;20234;-89
2024/02/01 01:54:01;;;;;;;0.37;0.37;;;7.00;99.90;;;;;;4992203;28;20199;-90
2024/02/01 01:56:28;;;;;;;0.80;0.40;;;7.00;99.90;;;;;;4975982;28;20215;-90
2024/02/01 01:58:54;;;;;;;0.73;0.73;;;6.80;99.90;;;;;;4976374;28;20203;-89
2024/02/01 02:01:21;;;;;;;1.43;1.37;;;6.70;99.90;;;;;;4990730;28;20557;-90
2024/02/01 02:03:47;;;;;;;2.17;1.00;;;6.70;99.90;;;;;;4975448;28;20230;-89
2024/02/01 02:06:13;;;;;;;1.57;0.33;;;6.90;99.90;;;;;;4974684;28;20200;-89
2024/02/01 02:08:39;;;;;;;1.70;1.47;;;6.80;99.90;;;;;;4975214;28;20203;-89
2024/02/01 02:11:05;;;;;;;0.43;0.43;;;6.60;99.90;;;;;;4999595;28;20220;-90
2024/02/01 02:13:31;;;;;;;1.87;1.77;;;6.80;99.90;;;;;;4983353;28;20231;-89
2024/02/01 02:15:57;;;;;;;0.30;0.30;;;6.60;99.90;;;;;;4991654;28;20292;-89
2024/02/01 02:18:23;;;;;;;4.90;1.13;;;6.70;99.90;;;;;;4980207;28;20238;-90
2024/02/01 02:20:51;;;;;;;2.63;2.50;;;6.50;99.90;;;;;;4978870;28;20215;-88
2024/02/01 02:23:17;;;;;;;2.20;0.93;;;6.70;99.90;;;;;;4993773;28;20688;-90
2024/02/01 02:25:43;;;;;;;0.73;0.50;;;6.40;99.90;;;;;;4995421;28;20231;-90
2024/02/01 02:28:09;;;;;;;4.07;1.10;;;6.60;99.90;;;;;;4978371;28;20289;-89
2024/02/01 02:30:37;;;;;;;1.50;1.13;;;6.50;99.90;;;;;;4979184;28;20238;-90
2024/02/01 02:33:03;;;;;;;0.30;0.30;;;6.40;99.90;;;;;;4988820;28;20269;-90
2024/02/01 02:35:29;;;;;;;0.20;0.20;;;6.40;99.90;;;;;;4996655;28;20572;-90
2024/02/01 02:37:55;;;;;;;6.13;0.70;;;6.30;99.90;;;;;;4979250;28;20298;-90
2024/02/01 02:40:22;;;;;;;2.83;2.13;;;6.30;99.90;;;;;;4987007;28;20238;-89
2024/02/01 02:42:48;;;;;;;0.77;0.77;;;6.40;99.90;;;;;;4995315;28;20239;-89
2024/02/01 02:45:14;;;;;;;2.00;1.23;;;6.20;99.90;;;;;;4986598;28;20176;-90
2024/02/01 02:47:40;;;;;;;1.07;1.07;;;6.20;99.90;;;;;;4994689;28;20219;-90
2024/02/01 02:50:08;;;;;;;1.37;1.27;;;6.30;99.90;;;;;;5006209;28;20239;-90
2024/02/01 02:52:38;;;;;;;0.30;0.30;;;6.50;99.90;;;;;;4979475;28;20318;-89
2024/02/01 02:55:07;;;;;;;0.50;0.50;;;6.30;99.90;;;;;;4994316;28;20223;-90
2024/02/01 02:57:35;;;;;;;0.63;0.47;;;6.40;99.90;;;;;;4978002;28;20172;-90
2024/02/01 03:00:03;;;;;;;1.17;1.07;;;6.20;99.90;;;;;;4995247;28;20633;-89
2024/02/01 03:02:29;;;;;;;3.73;0.67;;;6.30;99.90;;;;;;4972887;28;20230;-89
2024/02/01 03:04:55;;;;;;;2.00;1.90;;;6.30;99.90;;;;;;4978652;28;20261;-89
2024/02/01 03:07:21;;;;;;;0.10;0.10;;;6.40;99.90;;;;;;4978763;28;20223;-89
2024/02/01 03:09:47;;;;;;;11.13;1.33;;;6.20;99.90;;;;;;4978696;28;20233;-90
2024/02/01 03:12:13;;;;;;;11.70;1.67;;;6.20;99.90;;;;;;4978446;28;20298;-90
2024/02/01 03:14:40;;;;;;;0.30;0.30;;;6.20;99.90;;;;;;4978732;28;20219;-90
2024/02/01 03:17:10;;;;;;;0.13;0.13;;;6.30;99.90;;;;;;4994195;28;20754;-89
2024/02/01 03:19:37;;;;;;;1.50;1.03;;;6.30;99.90;;;;;;4995285;28;20565;-90
2024/02/01 03:22:03;;;;;;;6.73;3.00;;;6.30;99.90;;;;;;4994703;28;20722;-89
2024/02/01 03:24:32;;;;;;;0.43;0.40;;;6.10;99.90;;;;;;4984853;28;20283;-89
2024/02/01 03:26:58;;;;;;;0.20;0.20;;;6.20;99.90;;;;;;4977818;28;20203;-90
2024/02/01 03:29:26;;;;;;;0.47;0.47;;;6.40;99.90;;;;;;4993046;28;20226;-88
2024/02/01 03:31:52;;;;;;;3.30;2.70;;;6.20;99.90;;;;;;4985421;28;20250;-90
2024/02/01 03:34:21;;;;;;;0.77;0.77;;;6.30;99.90;;;;;;4994320;28;20235;-89
2024/02/01 03:36:50;;;;;;;3.13;2.70;;;6.20;99.90;;;;;;4994417;28;20683;-91
2024/02/01 03:39:22;;;;;;;1.23;0.37;;;6.10;99.90;;;;;;4987594;28;21305;-89
2024/02/01 03:41:52;;;;;;;1.43;1.30;;;6.10;99.90;;;;;;4993783;28;20613;-90
2024/02/01 03:44:19;;;;;;;1.30;1.27;;;6.00;99.90;;;;;;4986095;28;20588;-89
2024/02/01 03:46:45;;;;;;;3.97;2.13;;;6.20;99.90;;;;;;4993602;28;20635;-90
2024/02/01 03:49:10;;;;;;;1.67;1.57;;;6.00;99.90;;;;;;4976697;28;20306;-90
2024/02/01 03:51:37;;;;;;;2.23;0.63;;;6.20;99.90;;;;;;4977445;28;20262;-90
2024/02/01 03:54:06;;;;;;;11.80;0.97;;;6.20;99.90;;;;;;4979627;28;20226;-90
2024/02/01 03:56:35;;;;;;;1.63;1.63;;;6.20;99.90;;;;;;4977231;28;20212;-89
2024/02/01 03:59:02;;;;;;;0.10;0.10;;;6.10;99.90;;;;;;4983143;28;20218;-89
2024/02/01 04:01:29;;;;;;;8.30;0.83;;;6.00;99.90;;;;;;4977713;28;20222;-90
2024/02/01 04:03:55;;;;;;;9.03;1.33;;;6.30;99.90;;;;;;4971769;28;20215;-90
2024/02/01 04:06:23;;;;;;;0.30;0.30;;;6.00;99.90;;;;;;4977496;28;20528;-90
2024/02/01 04:08:52;;;;;;;2.43;2.00;;;6.20;99.90;;;;;;4977372;28;20223;-90
2024/02/01 04:11:18;;;;;;;1.40;1.03;;;6.20;99.90;;;;;;5011295;28;20242;-89
2024/02/01 04:13:43;;;;;;;22.63;1.23;;;6.10;99.90;;;;;;4978749;28;20723;-90
2024/02/01 04:16:09;;;;;;;4.03;1.10;;;6.30;99.90;;;;;;4960487;28;20632;-89
2024/02/01 04:18:35;;;;;;;7.20;1.70;;;6.10;99.90;;;;;;4982536;28;20194;-91
2024/02/01 04:21:04;;;;;;;3.83;2.80;;;6.10;99.90;;;;;;4977276;28;20203;-90
2024/02/01 04:23:30;;;;;;;2.00;1.53;;;6.10;99.90;;;;;;4976321;28;20218;-90
2024/02/01 04:25:59;;;;;;;0.67;0.67;;;6.20;99.90;;;;;;4960545;28;20215;-89
2024/02/01 04:28:25;;;;;;;0.90;0.90;;;6.20;99.90;;;;;;4961135;28;20215;-90
2024/02/01 04:30:51;;;;;;;0.73;0.67;;;6.20;99.90;;;;;;4970191;28;20373;-91
2024/02/01 04:33:20;;;;;;;0.57;0.57;;;6.30;99.90;;;;;;4995687;28;20312;-89
2024/02/01 04:35:46;;;;;;;0.33;0.33;;;6.20;99.90;;;;;;4992411;28;21463;-89
2024/02/01 04:38:12;;;;;;;9.33;3.43;;;6.20;99.90;;;;;;4975534;28;20699;-90
2024/02/01 04:40:39;;;;;;;22.83;2.23;;;6.20;99.90;;;;;;4956355;28;20238;-88
2024/02/01 04:43:05;;;;;;;0.77;0.77;;;6.40;99.90;;;;;;4974593;28;20821;-89
2024/02/01 04:45:34;;;;;;;4.23;1.63;;;6.30;99.90;;;;;;4975418;28;20192;-90
2024/02/01 04:48:00;;;;;;;0.77;0.77;;;6.20;99.90;;;;;;4976373;28;20237;-90
2024/02/01 04:50:29;;;;;;;1.80;1.73;;;6.10;99.90;;;;;;4958871;28;20215;-89
2024/02/01 04:52:54;;;;;;;11.90;1.90;;;6.10;99.90;;;;;;4959615;28;20860;-89
2024/02/01 04:55:21;;;;;;;10.93;0.70;;;6.20;99.90;;;;;;4972313;28;20224;-90
2024/02/01 04:57:47;;;;;;;4.73;0.77;;;6.30;99.90;;;;;;4958546;28;20242;-90
2024/02/01 05:00:14;;;;;;;0.40;0.40;;;6.10;99.90;;;;;;4951027;28;20226;-90
2024/02/01 05:02:47;;;;;;;0.50;0.50;;;6.20;99.90;;;;;;4972828;28;20211;-90
2024/02/01 05:05:14;;;;;;;2.03;1.93;;;6.30;99.90;;;;;;4984595;28;20220;-90
2024/02/01 05:07:41;;;;;;;0.50;0.50;;;6.20;99.90;;;;;;4987423;28;20219;-89
2024/02/01 05:10:12;;;;;;;32.60;1.07;;;6.20;99.90;;;;;;4991808;28;20981;-90
2024/02/01 05:12:41;;;;;;;0.27;0.27;;;6.20;99.90;;;;;;4977081;28;20242;-90
2024/02/01 05:15:09;;;;;;;0.73;0.73;;;6.20;99.90;;;;;;4992532;28;20275;-89
2024/02/01 05:17:35;;;;;;;1.80;1.70;;;6.10;99.90;;;;;;4991980;28;20261;-89
2024/02/01 05:20:08;;;;;;;1.53;1.03;;;6.30;99.90;;;;;;4974851;28;20258;-90
2024/02/01 05:22:38;;;;;;;0.83;0.83;;;6.30;99.90;;;;;;4991714;28;20218;-89
2024/02/01 05:25:14;;;;;;;4.73;3.50;;;6.40;99.90;;;;;;4990118;28;20219;-90
2024/02/01 05:27:44;;;;;;;0.47;0.47;;;6.20;99.90;;;;;;4976933;28;20543;-90
2024/02/01 05:30:11;;;;;;;0.57;0.40;;;6.20;99.90;;;;;;4992588;28;20200;-89
2024/02/01 05:32:48;;;;;;;5.40;3.40;;;6.20;99.90;;;;;;4986331;28;20715;-90
2024/02/01 05:35:14;;;;;;;0.37;0.33;;;6.10;99.90;;;;;;4976400;28;20839;-90
2024/02/01 05:37:46;;;;;;;1.70;1.60;;;6.10;99.90;;;;;;4991749;28;21577;-90
2024/02/01 05:40:16;;;;;;;2.90;0.97;;;6.10;99.90;;;;;;4969001;28;20280;-90
2024/02/01 05:42:44;;;;;;;12.53;0.80;;;6.00;99.90;;;;;;4965887;28;20324;-90
2024/02/01 05:45:10;;;;;;;1.80;1.43;;;6.20;99.90;;;;;;4991680;28;20705;-90
2024/02/01 05:47:36;;;;;;;3.70;3.40;;;6.10;99.90;;;;;;4967214;28;20671;-89
2024/02/01 05:50:04;;;;;;;0.50;0.50;;;6.00;99.90;;;;;;4975219;28;20309;-91
2024/02/01 05:52:33;;;;;;;0.20;0.20;;;6.00;99.90;;;;;;4979279;28;20873;-90
2024/02/01 05:55:04;;;;;;;2.07;2.00;;;6.10;99.90;;;;;;4997442;28;20210;-88
2024/02/01 05:57:37;;;;;;;1.07;1.07;;;6.10;99.90;;;;;;4981645;28;20191;-90
2024/02/01 06:00:06;;;;;;;6.77;1.47;;;6.10;99.90;;;;;;4994549;28;20171;-90
2024/02/01 06:02:33;;;;;;;1.50;1.40;;;6.10;99.90;;;;;;4993253;28;20223;-90
2024/02/01 06:04:59;;;;;;;0.70;0.70;;;6.00;99.90;;;;;;4995171;28;20207;-91
2024/02/01 06:07:27;;;;;;;1.30;1.30;;;6.00;99.90;;;;;;4978809;28;20240;-91
2024/02/01 06:09:53;;;;;;;1.03;0.93;;;6.00;99.90;;;;;;4979033;28;20226;-90
2024/02/01 06:12:19;;;;;;;1.13;1.13;;;6.10;99.90;;;;;;4978589;28;20192;-90
2024/02/01 06:14:45;;;;;;;6.77;0.97;;;5.90;99.90;;;;;;4978505;28;20294;-89
2024/02/01 06:17:11;;;;;;;5.70;4.63;;;5.90;99.90;;;;;;4978369;28;20311;-89
2024/02/01 06:19:36;;;;;;;0.60;0.60;;;6.10;99.90;;;;;;4954221;28;20215;-90
2024/02/01 06:22:05;;;;;;;0.20;0.20;;;6.10;99.90;;;;;;4978317;28;20250;-90
2024/02/01 06:24:33;;;;;;;14.03;2.63;;;6.10;99.90;;;;;;4994305;28;20179;-90
2024/02/01 06:26:59;;;;;;;6.03;2.43;;;6.00;99.90;;;;;;4979128;28;20573;-90
2024/02/01 06:29:24;;;;;;;0.20;0.20;;;6.10;99.90;;;;;;4978427;28;20246;-90
2024/02/01 06:31:50;;;;;;;0.30;0.30;;;6.20;99.90;;;;;;4978143;28;20222;-89
2024/02/01 06:34:18;;;;;;;0.60;0.60;;;6.00;99.90;;;;;;4973157;28;20370;-89
2024/02/01 06:36:51;;;;;;;0.27;0.27;;;6.00;99.90;;;;;;4990722;28;20539;-89
2024/02/01 06:39:37;;;;;;;0.30;0.30;;;6.00;99.90;;;;;;4995671;28;20225;-90
2024/02/01 06:45:05;;;;;;;1.03;0.80;;;6.00;99.90;;;;;;4990991;28;20238;-90
2024/02/01 06:47:38;;;;;;;16.27;1.50;;;6.00;99.90;;;;;;4979539;28;20247;-90
2024/02/01 06:50:15;;;;;;;2.80;1.13;;;6.20;99.90;;;;;;4978684;28;20231;-91
2024/02/01 06:52:43;;;;;;;1.93;1.63;;;6.00;99.90;;;;;;4994285;28;20230;-90
2024/02/01 06:58:03;;;;;;;0.30;0.30;;;6.20;99.90;;;;;;5011419;28;20242;-90
2024/02/01 07:03:13;;;;;;;11.67;0.87;;;5.90;99.90;;;;;;5012266;28;20187;-91
2024/02/01 07:16:21;;;;;;;6.33;2.30;;;6.00;99.90;;;;;;5010507;28;20245;-90
2024/02/01 07:19:09;;;;;;;3.20;2.80;;;6.10;99.90;;;;;;4977582;28;20699;-91
2024/02/01 07:21:45;;;;;;;2.80;1.23;;;6.00;99.90;;;;;;4996949;28;20183;-90
2024/02/01 07:24:37;;;;;;;0.40;0.40;;;6.00;99.90;;;;;;4982183;28;20175;-90
2024/02/01 08:00:28;;;;;;;0.83;0.60;;;6.60;99.90;;;;;;4978099;28;20230;-90
2024/02/01 08:03:00;;;;;;;1.13;0.83;;;6.70;99.90;;;;;;4994794;28;20187;-90
2024/02/01 08:08:17;;;;;;;3.33;1.97;;;7.10;99.90;;;;;;5010501;28;20223;-91
2024/02/01 08:10:44;;;;;;;0.40;0.40;;;7.20;99.90;;;;;;4976135;28;20568;-90
2024/02/01 08:13:12;;;;;;;1.80;0.40;;;7.10;99.90;;;;;;4993057;28;20243;-90
2024/02/01 08:15:42;;;;;;;1.73;1.63;;;7.30;99.90;;;;;;4993193;28;20199;-90
2024/02/01 08:18:11;;;;;;;6.43;1.20;;;7.50;99.90;;;;;;4979184;28;20644;-90
2024/02/01 08:20:39;;;;;;;0.40;0.40;;;7.90;99.90;;;;;;4987414;28;20294;-89
2024/02/01 08:23:06;;;;;;;4.90;2.77;;;8.30;99.90;;;;;;4994068;28;20319;-90
2024/02/01 08:25:33;;;;;;;4.40;3.27;;;8.60;99.90;;;;;;4994923;28;20216;-90
2024/02/01 08:28:00;;;;;;;8.70;1.37;;;8.80;99.90;;;;;;4987474;28;20226;-90
2024/02/01 08:30:29;;;;;;;2.10;1.70;;;8.80;99.90;;;;;;4997541;28;20242;-91
2024/02/01 08:33:02;;;;;;;1.50;1.50;;;8.90;99.90;;;;;;4995024;28;20655;-90
2024/02/01 08:35:34;;;;;;;0.43;0.40;;;8.70;99.90;;;;;;4978065;28;20293;-91
2024/02/01 08:38:01;;;;;;;3.63;1.40;;;8.20;99.90;;;;;;5001826;28;20385;-90
2024/02/01 08:40:26;;;;;;;5.10;1.13;;;7.80;99.90;;;;;;4977179;28;20239;-89
2024/02/01 08:42:57;;;;;;;2.10;1.33;;;7.80;99.90;;;;;;4992420;28;20255;-90
2024/02/01 08:45:28;;;;;;;3.73;1.13;;;7.60;99.90;;;;;;4976900;28;20186;-89
2024/02/01 08:48:02;;;;;;;1.73;0.70;;;7.70;99.90;;;;;;4983800;28;20196;-90
2024/02/01 08:50:50;;;;;;;11.57;1.90;;;7.60;99.90;;;;;;4985416;28;20222;-91
2024/02/01 08:53:18;;;;;;;1.30;1.17;;;7.50;99.90;;;;;;4991553;28;20288;-90
2024/02/01 08:55:52;;;;;;;1.77;1.33;;;7.50;99.90;;;;;;4992901;28;20211;-89
2024/02/01 08:58:20;;;;;;;0.57;0.57;;;7.50;99.90;;;;;;4976789;28;20223;-91
2024/02/01 09:00:47;;;;;;;0.40;0.40;;;7.50;99.90;;;;;;4999551;28;20194;-91
2024/02/01 09:03:16;;;;;;;4.50;1.07;;;7.50;99.90;;;;;;4976476;28;20187;-90
2024/02/01 09:05:50;;;;;;;1.43;0.90;;;7.40;99.90;;;;;;4974330;28;20327;-89
2024/02/01 09:08:38;;;;;;;0.60;0.60;;;7.40;99.90;;;;;;4982466;28;20226;-89
2024/02/01 09:11:12;;;;;;;1.53;1.43;;;7.40;99.90;;;;;;4981018;28;20273;-90
2024/02/01 09:13:43;;;;;;;3.47;0.87;;;7.40;99.90;;;;;;4976237;28;20281;-91
2024/02/01 09:16:32;;;;;;;1.70;0.60;;;7.50;99.90;;;;;;4990990;28;20754;-89
2024/02/01 09:19:02;;;;;;;2.93;1.67;;;7.40;99.90;;;;;;4976670;28;20289;-90
2024/02/01 09:21:28;;;;;;;0.20;0.20;;;7.50;99.90;;;;;;4992066;28;20669;-89
2024/02/01 09:23:54;;;;;;;1.60;0.87;;;7.60;99.90;;;;;;4987453;28;20183;-90
2024/02/01 09:26:20;;;;;;;0.10;0.10;;;7.50;99.90;;;;;;4976515;28;20318;-90
2024/02/01 09:28:46;;;;;;;1.03;0.70;;;7.50;99.90;;;;;;4975824;28;20302;-90
2024/02/01 09:31:21;;;;;;;0.30;0.27;;;7.60;99.90;;;;;;4974973;28;20215;-90
2024/02/01 09:33:49;;;;;;;0.73;0.73;;;7.70;99.90;;;;;;4993062;28;20209;-90
2024/02/01 09:36:15;;;;;;;0.20;0.20;;;7.70;99.90;;;;;;4991698;28;20545;-91
2024/02/01 09:38:42;;;;;;;1.07;0.97;;;7.80;99.90;;;;;;4991043;28;20219;-90
2024/02/01 09:41:15;;;;;;;0.50;0.50;;;7.70;99.90;;;;;;4975480;28;20211;-90
2024/02/01 09:43:51;;;;;;;9.27;1.73;;;7.80;99.90;;;;;;4932335;28;1196079;-90
2024/02/01 09:46:19;;;;;;;10.13;2.00;;;7.80;99.90;;;;;;4988535;28;20215;-91
2024/02/01 09:48:45;;;;;;;3.10;2.30;;;7.90;99.90;;;;;;4972984;28;20188;-91
2024/02/01 09:51:17;;;;;;;6.00;1.23;;;7.90;99.90;;;;;;4973887;28;20235;-90
2024/02/01 09:53:47;;;;;;;4.83;0.53;;;7.90;99.90;;;;;;4973532;28;20219;-90
2024/02/01 09:56:13;;;;;;;3.30;1.30;;;7.90;99.90;;;;;;4989297;28;20217;-91
2024/02/01 09:58:43;;;;;;;1.87;0.50;;;7.80;99.90;;;;;;4945713;28;20224;-90
2024/02/01 10:01:11;;;;;;;0.57;0.57;;;7.90;99.90;;;;;;4973616;28;20254;-90
2024/02/01 10:03:44;;;;;;;3.43;1.00;;;7.80;99.90;;;;;;4975324;28;20176;-90
2024/02/01 10:06:11;;;;;;;0.30;0.30;;;7.90;99.90;;;;;;4988229;28;20243;-90
2024/02/01 10:08:38;;;;;;;4.20;1.30;;;7.90;99.90;;;;;;4987746;28;20227;-89
2024/02/01 10:11:04;;;;;;;5.43;1.97;;;8.00;99.90;;;;;;4971978;28;20227;-90
2024/02/01 10:13:37;;;;;;;0.20;0.20;;;7.90;99.90;;;;;;4972253;28;20223;-89
2024/02/01 10:16:12;;;;;;;17.83;1.23;;;7.90;99.90;;;;;;4989078;28;20680;-88
2024/02/01 10:18:38;;;;;;;0.90;0.87;;;8.00;99.90;;;;;;4957770;28;20222;-90
2024/02/01 10:21:21;;;;;;;8.00;0.87;;;8.00;99.90;;;;;;4972830;28;20200;-90
2024/02/01 10:23:48;;;;;;;0.10;0.10;;;8.10;99.90;;;;;;4973123;28;20772;-88
2024/02/01 10:26:23;;;;;;;17.70;3.00;;;7.90;99.90;;;;;;4954520;28;20696;-89
2024/02/01 10:28:49;;;;;;;7.43;2.73;;;7.90;99.90;;;;;;4972010;28;20262;-89
2024/02/01 10:31:17;;;;;;;1.90;0.43;;;7.90;99.90;;;;;;4987395;28;20227;-90
2024/02/01 10:33:45;;;;;;;1.20;1.20;;;8.00;99.90;;;;;;4987904;28;20673;-89
2024/02/01 10:36:14;;;;;;;1.40;1.10;;;8.10;99.90;;;;;;4972986;28;20187;-89
2024/02/01 10:38:44;;;;;;;2.67;1.70;;;8.20;99.90;;;;;;4975627;28;21174;-87
2024/02/01 10:41:17;;;;;;;14.10;1.83;;;8.20;99.90;;;;;;4992889;28;20216;-88
2024/02/01 10:43:47;;;;;;;2.50;2.20;;;8.20;99.90;;;;;;4980312;28;20219;-89
2024/02/01 10:46:27;;;;;;;10.10;1.90;;;8.20;99.90;;;;;;4996991;28;20707;-89
2024/02/01 10:49:05;;;;;;;3.33;0.77;;;8.20;99.90;;;;;;5000872;28;20211;-90
2024/02/01 10:51:32;;;;;;;2.30;1.63;;;8.10;99.90;;;;;;5008277;28;20696;-89
2024/02/01 10:54:01;;;;;;;0.50;0.50;;;8.10;99.90;;;;;;4982359;28;20311;-90
2024/02/01 10:56:29;;;;;;;2.30;0.90;;;8.10;99.90;;;;;;4979424;28;20207;-88
2024/02/01 10:59:07;;;;;;;1.83;0.37;;;8.20;99.90;;;;;;4957233;28;20636;-89
2024/02/01 11:01:35;;;;;;;2.13;1.03;;;8.20;99.90;;;;;;5014920;28;20217;-88
2024/02/01 11:04:05;;;;;;;21.53;1.80;;;8.30;99.90;;;;;;4994117;28;20207;-90
2024/02/01 11:06:32;;;;;;;1.07;1.03;;;8.20;99.90;;;;;;4979950;28;20195;-89
2024/02/01 11:09:18;;;;;;;3.53;1.50;;;8.30;99.90;;;;;;4978569;28;21223;-90
2024/02/01 11:11:51;;;;;;;0.60;0.60;;;8.30;99.90;;;;;;4979346;28;20262;-89
2024/02/01 11:14:21;;;;;;;1.40;0.97;;;8.30;99.90;;;;;;4993799;28;20325;-90
2024/02/01 11:16:52;;;;;;;5.47;0.97;;;8.30;99.90;;;;;;4994638;28;20207;-90
2024/02/01 11:19:22;;;;;;;3.30;1.17;;;8.40;99.90;;;;;;5002014;28;20223;-89
2024/02/01 11:22:01;;;;;;;2.43;0.93;;;8.30;99.90;;;;;;4988362;28;20222;-90
2024/02/01 11:24:32;;;;;;;1.93;1.30;;;8.40;99.90;;;;;;4985694;28;20722;-88
2024/02/01 11:27:00;;;;;;;2.80;1.27;;;8.40;99.90;;;;;;4978016;28;20215;-88
2024/02/01 11:29:38;;;;;;;0.20;0.20;;;8.40;99.90;;;;;;4978024;28;20654;-89
2024/02/01 11:32:05;;;;;;;2.33;0.97;;;8.50;99.90;;;;;;4970085;28;21793;-89
2024/02/01 11:34:33;;;;;;;0.20;0.20;;;8.40;99.90;;;;;;4977457;28;20235;-91
2024/02/01 11:37:00;;;;;;;1.97;1.10;;;8.40;99.90;;;;;;4993080;28;20574;-89
2024/02/01 11:39:27;;;;;;;4.13;1.07;;;8.50;99.90;;;;;;4994439;28;20206;-89
2024/02/01 11:41:55;;;;;;;0.20;0.20;;;8.50;99.90;;;;;;4977374;28;20220;-89
2024/02/01 11:44:28;;;;;;;2.87;0.97;;;8.50;99.90;;;;;;4976062;28;20231;-89
2024/02/01 11:46:57;;;;;;;2.30;1.60;;;8.60;99.90;;;;;;4987225;28;20302;-89
2024/02/01 11:49:26;;;;;;;1.07;0.50;;;8.60;99.90;;;;;;4974545;28;20666;-88
2024/02/01 11:52:21;;;;;;;0.20;0.20;;;8.60;99.90;;;;;;4984567;28;20222;-90
2024/02/01 11:54:51;;;;;;;1.23;1.07;;;8.60;99.90;;;;;;4994457;28;20925;-90
2024/02/01 11:57:22;;;;;;;10.47;1.37;;;8.60;99.90;;;;;;4981200;28;20238;-89
2024/02/01 11:59:48;;;;;;;3.60;3.33;;;8.60;99.90;;;;;;5010737;28;20684;-90
2024/02/01 12:02:18;;;;;;;2.13;1.93;;;8.60;99.90;;;;;;4997827;28;20215;-90
2024/02/01 12:04:50;;;;;;;0.67;0.67;;;8.60;99.90;;;;;;4996506;28;20256;-89
2024/02/01 12:07:20;;;;;;;17.23;0.73;;;8.60;99.90;;;;;;4978718;28;20587;-90
2024/02/01 12:09:48;;;;;;;3.87;1.23;;;8.60;99.90;;;;;;4979975;28;20191;-91
2024/02/01 12:12:21;;;;;;;1.23;1.03;;;8.60;99.90;;;;;;5007229;28;20187;-90
2024/02/01 12:14:47;;;;;;;2.47;0.83;;;8.70;99.90;;;;;;4995382;28;20223;-90
2024/02/01 12:17:24;;;;;;;1.17;0.90;;;8.70;99.90;;;;;;4980820;28;20353;-90
2024/02/01 12:19:51;;;;;;;1.73;1.33;;;8.70;99.90;;;;;;5002997;28;20222;-90
2024/02/01 12:22:19;;;;;;;0.40;0.40;;;8.70;99.90;;;;;;4980522;28;20219;-89
2024/02/01 12:24:46;;;;;;;6.30;1.27;;;8.80;99.90;;;;;;4985040;28;20174;-91
2024/02/01 12:27:12;;;;;;;0.67;0.50;;;8.70;99.90;;;;;;4981543;28;20184;-91
2024/02/01 12:29:39;;;;;;;3.10;0.80;;;8.70;99.90;;;;;;4997019;28;20212;-90
2024/02/01 12:32:12;;;;;;;4.37;1.43;;;8.80;99.90;;;;;;4996743;28;20585;-91
2024/02/01 12:34:39;;;;;;;0.40;0.40;;;8.70;99.90;;;;;;4981285;28;20227;-89
2024/02/01 12:37:07;;;;;;;6.53;1.77;;;8.80;99.90;;;;;;4981335;28;20215;-90
2024/02/01 12:39:36;;;;;;;9.87;2.63;;;8.80;99.90;;;;;;4980058;28;20637;-91
2024/02/01 12:42:03;;;;;;;0.70;0.70;;;8.80;99.90;;;;;;4981638;28;20219;-90
2024/02/01 12:44:37;;;;;;;0.77;0.77;;;8.70;99.90;;;;;;4981253;28;20234;-90
2024/02/01 12:47:06;;;;;;;8.40;0.83;;;8.80;99.90;;;;;;4972648;28;20203;-90
2024/02/01 12:49:32;;;;;;;5.17;0.67;;;8.80;99.90;;;;;;4978459;28;20219;-90
2024/02/01 12:52:04;;;;;;;0.30;0.30;;;8.80;99.90;;;;;;4982585;28;20223;-91
2024/02/01 12:54:39;;;;;;;2.40;0.80;;;8.80;99.90;;;;;;4978903;28;20598;-91
2024/02/01 12:57:08;;;;;;;1.60;0.67;;;8.90;99.90;;;;;;4995216;28;20275;-89
2024/02/01 12:59:36;;;;;;;0.30;0.30;;;9.20;99.90;;;;;;4976383;28;20212;-90
2024/02/01 13:02:04;;;;;;;6.03;1.03;;;9.30;99.90;;;;;;4976896;28;20223;-89
2024/02/01 13:04:31;;;;;;;5.40;1.33;;;9.40;99.90;;;;;;4994821;28;20227;-91
2024/02/01 13:06:56;;;;;;;1.07;0.90;;;9.50;99.90;;;;;;4990620;28;20243;-88
2024/02/01 13:09:28;;;;;;;0.93;0.87;;;9.30;99.90;;;;;;4978874;28;20191;-91
2024/02/01 13:11:58;;;;;;;0.40;0.40;;;9.30;99.90;;;;;;4976792;28;20563;-89
2024/02/01 13:14:33;;;;;;;2.20;0.90;;;9.40;99.90;;;;;;4991497;28;20774;-90
2024/02/01 13:16:59;;;;;;;18.87;1.07;;;9.40;99.90;;;;;;4992715;28;20867;-89
2024/02/01 13:19:25;;;;;;;1.80;0.60;;;9.30;99.90;;;;;;4976161;28;20220;-89
2024/02/01 13:21:52;;;;;;;0.40;0.40;;;9.40;99.90;;;;;;4981196;28;20212;-89
2024/02/01 13:24:17;;;;;;;13.03;0.60;;;9.40;99.90;;;;;;4982345;28;20188;-88
2024/02/01 13:26:43;;;;;;;2.07;1.23;;;9.30;99.90;;;;;;4975443;28;20702;-88
2024/02/01 13:29:13;;;;;;;1.30;0.57;;;9.30;99.90;;;;;;4974556;28;20218;-89
2024/02/01 13:31:44;;;;;;;1.90;1.50;;;9.20;99.90;;;;;;4975165;28;20290;-88
2024/02/01 13:34:09;;;;;;;7.30;2.07;;;9.20;99.90;;;;;;4976858;28;20365;-89
2024/02/01 13:36:35;;;;;;;12.43;1.50;;;9.10;99.90;;;;;;4974406;28;20278;-88
2024/02/01 13:39:05;;;;;;;3.27;2.17;;;9.30;99.90;;;;;;4976348;28;20275;-90
2024/02/01 13:41:34;;;;;;;2.40;1.50;;;9.30;99.90;;;;;;4975878;28;20775;-89
2024/02/01 13:44:00;;;;;;;0.20;0.20;;;9.20;99.90;;;;;;4991632;28;20249;-89
2024/02/01 13:46:26;;;;;;;6.33;0.37;;;9.30;99.90;;;;;;4999332;28;20222;-88
2024/02/01 13:48:52;;;;;;;4.47;0.73;;;9.20;99.90;;;;;;4991344;28;20219;-88
2024/02/01 13:51:19;;;;;;;15.60;1.13;;;9.30;99.90;;;;;;4992019;28;20199;-87
2024/02/01 13:53:45;;;;;;;1.43;1.33;;;9.30;99.90;;;;;;4989959;28;20620;-87
2024/02/01 13:56:11;;;;;;;1.67;1.10;;;9.30;99.90;;;;;;4984479;28;20567;-88
2024/02/01 13:58:37;;;;;;;2.30;0.50;;;9.30;99.90;;;;;;4974043;28;20301;-87